createdAt,value
2022-11-05T00:01:02.238Z,101415.56
2022-11-05T00:04:05.875Z,101425.94
2022-11-05T00:07:11.193Z,101432.16
2022-11-05T00:10:19.769Z,101424.50
2022-11-05T00:13:26.156Z,101427.34
2022-11-05T00:16:29.783Z,101423.97
2022-11-05T00:19:16.686Z,101418.84
2022-11-05T00:22:20.542Z,101416.41
2022-11-05T00:25:14.654Z,101412.13
2022-11-05T00:28:03.813Z,101416.41
2022-11-05T00:30:49.165Z,101406.84
2022-11-05T00:33:34.265Z,101389.16
2022-11-05T00:36:19.184Z,101403.53
2022-11-05T00:39:05.815Z,101408.81
2022-11-05T00:42:10.676Z,101413.25
2022-11-05T00:45:01.882Z,101426.19
2022-11-05T00:48:05.971Z,101425.28
2022-11-05T00:50:51.307Z,101431.31
2022-11-05T00:53:36.544Z,101440.84
2022-11-05T00:56:21.577Z,101429.41
2022-11-05T00:59:06.542Z,101438.94
2022-11-05T01:01:51.858Z,101438.09
2022-11-05T01:04:37.123Z,101440.72
2022-11-05T01:07:22.201Z,101428.88
2022-11-05T01:10:07.718Z,101422.16
2022-11-05T01:12:52.672Z,101447.59
2022-11-05T01:15:38.766Z,101449.31
2022-11-05T01:18:25.274Z,101432.19
2022-11-05T01:21:15.741Z,101421.00
2022-11-05T01:24:01.244Z,101411.59
2022-11-05T01:26:46.282Z,101428.53
2022-11-05T01:29:31.454Z,101430.19
2022-11-05T01:32:16.502Z,101423.16
2022-11-05T01:35:02.185Z,101422.22
2022-11-05T01:37:47.548Z,101421.22
2022-11-05T01:40:32.461Z,101414.16
2022-11-05T01:43:20.694Z,101406.44
2022-11-05T01:46:05.845Z,101392.63
2022-11-05T01:48:57.288Z,101398.41
2022-11-05T01:51:46.070Z,101419.53
2022-11-05T01:54:34.720Z,101403.69
2022-11-05T01:57:20.128Z,101412.53
2022-11-05T02:00:06.010Z,101418.63
2022-11-05T02:02:50.980Z,101410.25
2022-11-05T02:05:37.036Z,101422.97
2022-11-05T02:08:45.877Z,101429.09
2022-11-05T02:11:30.839Z,101428.25
2022-11-05T02:14:16.089Z,101394.84
2022-11-05T02:17:08.196Z,101425.72
2022-11-05T02:20:06.335Z,101432.63
2022-11-05T02:23:19.542Z,101436.03
2022-11-05T02:26:22.861Z,101427.31
2022-11-05T02:29:20.042Z,101424.78
2022-11-05T02:32:07.901Z,101423.94
2022-11-05T02:35:22.865Z,101414.59
2022-11-05T02:38:13.091Z,101416.41
2022-11-05T02:41:41.734Z,101408.59
2022-11-05T02:44:44.904Z,101408.56
2022-11-05T02:47:42.782Z,101410.44
2022-11-05T02:50:37.220Z,101407.91
2022-11-05T02:53:31.498Z,101415.78
2022-11-05T02:56:24.053Z,101388.41
2022-11-05T02:59:09.121Z,101406.00
2022-11-05T03:01:55.181Z,101403.47
2022-11-05T03:04:40.903Z,101406.19
2022-11-05T03:07:44.855Z,101408.88
2022-11-05T03:10:49.588Z,101409.84
2022-11-05T03:13:59.162Z,101410.81
2022-11-05T03:16:53.934Z,101417.94
2022-11-05T03:19:54.158Z,101396.72
2022-11-05T03:22:47.293Z,101410.19
2022-11-05T03:25:38.902Z,101404.16
2022-11-05T03:28:27.840Z,101397.41
2022-11-05T03:31:14.737Z,101411.19
2022-11-05T03:34:02.159Z,101385.56
2022-11-05T03:36:52.080Z,101383.75
2022-11-05T03:39:48.065Z,101394.72
2022-11-05T03:42:36.989Z,101391.34
2022-11-05T03:45:26.611Z,101397.31
2022-11-05T03:48:14.191Z,101393.00
2022-11-05T03:51:17.728Z,101400.78
2022-11-05T03:54:04.875Z,101395.63
2022-11-05T03:57:01.287Z,101397.31
2022-11-05T03:59:49.019Z,101404.22
2022-11-05T04:02:34.406Z,101386.78
2022-11-05T04:05:19.551Z,101381.63
2022-11-05T04:08:43.239Z,101380.66
2022-11-05T04:11:46.971Z,101391.84
2022-11-05T04:14:32.244Z,101387.47
2022-11-05T04:17:17.484Z,101385.72
2022-11-05T04:20:21.115Z,101387.47
2022-11-05T04:23:25.323Z,101390.88
2022-11-05T04:26:10.474Z,101371.22
2022-11-05T04:29:14.355Z,101395.09
2022-11-05T04:31:59.684Z,101368.50
2022-11-05T04:34:44.800Z,101363.19
2022-11-05T04:37:30.139Z,101387.06
2022-11-05T04:40:15.105Z,101386.16
2022-11-05T04:43:00.463Z,101385.31
2022-11-05T04:45:45.733Z,101390.31
2022-11-05T04:48:31.035Z,101392.91
2022-11-05T04:51:16.831Z,101382.47
2022-11-05T04:54:01.684Z,101386.03
2022-11-05T04:56:46.927Z,101381.78
2022-11-05T04:59:31.933Z,101385.06
2022-11-05T05:02:16.876Z,101383.31
2022-11-05T05:05:03.108Z,101384.09
2022-11-05T05:07:48.131Z,101387.56
2022-11-05T05:10:33.032Z,101400.63
2022-11-05T05:13:17.999Z,101405.81
2022-11-05T05:16:08.075Z,101386.84
2022-11-05T05:18:54.175Z,101356.94
2022-11-05T05:21:39.373Z,101370.41
2022-11-05T05:24:24.950Z,101369.50
2022-11-05T05:27:10.192Z,101371.13
2022-11-05T05:29:59.446Z,101362.38
2022-11-05T05:32:44.584Z,101364.03
2022-11-05T05:35:30.048Z,101369.22
2022-11-05T05:38:14.896Z,101360.59
2022-11-05T05:41:00.643Z,101359.38
2022-11-05T05:43:45.719Z,101354.06
2022-11-05T05:46:30.941Z,101360.09
2022-11-05T05:49:16.248Z,101359.16
2022-11-05T05:52:01.091Z,101360.13
2022-11-05T05:54:45.940Z,101352.56
2022-11-05T05:57:30.891Z,101351.00
2022-11-05T06:00:16.124Z,101356.09
2022-11-05T06:03:01.140Z,101354.25
2022-11-05T06:05:46.337Z,101352.34
2022-11-05T06:08:31.984Z,101353.03
2022-11-05T06:11:17.148Z,101339.56
2022-11-05T06:14:02.343Z,101357.41
2022-11-05T06:16:47.303Z,101374.84
2022-11-05T06:19:32.255Z,101372.22
2022-11-05T06:22:17.231Z,101353.97
2022-11-05T06:25:02.647Z,101359.94
2022-11-05T06:27:47.890Z,101355.56
2022-11-05T06:30:33.153Z,101360.81
2022-11-05T06:33:18.390Z,101354.06
2022-11-05T06:36:04.919Z,101359.94
2022-11-05T06:38:50.130Z,101350.59
2022-11-05T06:41:45.662Z,101350.41
2022-11-05T06:44:40.304Z,101354.50
2022-11-05T06:47:25.232Z,101361.22
2022-11-05T06:50:10.512Z,101346.56
2022-11-05T06:53:00.829Z,101335.38
2022-11-05T06:55:47.827Z,101351.53
2022-11-05T06:58:33.812Z,101329.50
2022-11-05T07:01:19.225Z,101345.63
2022-11-05T07:04:04.480Z,101343.19
2022-11-05T07:06:49.708Z,101344.94
2022-11-05T07:09:38.432Z,101340.53
2022-11-05T07:12:23.399Z,101325.88
2022-11-05T07:15:09.613Z,101346.97
2022-11-05T07:17:59.793Z,101342.78
2022-11-05T07:20:44.726Z,101338.63
2022-11-05T07:23:29.702Z,101341.09
2022-11-05T07:26:14.995Z,101334.94
2022-11-05T07:29:00.373Z,101341.66
2022-11-05T07:31:46.937Z,101329.50
2022-11-05T07:34:32.458Z,101320.13
2022-11-05T07:37:17.563Z,101355.16
2022-11-05T07:40:03.180Z,101330.47
2022-11-05T07:42:50.815Z,101344.56
2022-11-05T07:45:36.014Z,101344.47
2022-11-05T07:48:21.014Z,101330.72
2022-11-05T07:51:06.207Z,101328.25
2022-11-05T07:53:51.167Z,101343.47
2022-11-05T07:56:36.663Z,101346.06
2022-11-05T07:59:21.672Z,101334.06
2022-11-05T08:02:09.845Z,101328.13
2022-11-05T08:04:55.208Z,101330.72
2022-11-05T08:07:40.293Z,101336.47
2022-11-05T08:10:25.824Z,101342.47
2022-11-05T08:13:12.941Z,101319.44
2022-11-05T08:15:58.533Z,101344.09
2022-11-05T08:18:44.620Z,101352.41
2022-11-05T08:21:30.938Z,101344.53
2022-11-05T08:24:15.788Z,101355.66
2022-11-05T08:27:00.677Z,101358.16
2022-11-05T08:29:45.953Z,101364.91
2022-11-05T08:32:31.031Z,101367.38
2022-11-05T08:35:15.902Z,101363.00
2022-11-05T08:38:03.144Z,101360.59
2022-11-05T08:40:57.417Z,101361.84
2022-11-05T08:43:42.375Z,101360.81
2022-11-05T08:46:27.415Z,101367.22
2022-11-05T08:49:12.287Z,101364.75
2022-11-05T08:51:57.569Z,101367.59
2022-11-05T08:54:43.605Z,101338.56
2022-11-05T08:57:28.709Z,101352.13
2022-11-05T09:00:15.153Z,101331.53
2022-11-05T09:03:04.133Z,101353.44
2022-11-05T09:05:49.103Z,101332.72
2022-11-05T09:08:34.365Z,101339.25
2022-11-05T09:11:19.449Z,101344.31
2022-11-05T09:14:04.416Z,101323.63
2022-11-05T09:16:49.429Z,101335.16
2022-11-05T09:19:39.398Z,101333.28
2022-11-05T09:22:24.766Z,101324.53
2022-11-05T09:25:10.134Z,101334.44
2022-11-05T09:28:14.632Z,101316.81
2022-11-05T09:31:06.065Z,101303.06
2022-11-05T09:33:50.835Z,101307.75
2022-11-05T09:36:35.878Z,101312.94
2022-11-05T09:39:20.963Z,101314.34
2022-11-05T09:42:11.746Z,101307.19
2022-11-05T09:45:13.423Z,101306.09
2022-11-05T09:48:15.735Z,101298.19
2022-11-05T09:51:00.931Z,101304.88
2022-11-05T09:53:46.567Z,101293.06
2022-11-05T09:56:37.280Z,101297.69
2022-11-05T09:59:43.520Z,101277.78
2022-11-05T10:02:33.150Z,101290.47
2022-11-05T10:05:18.786Z,101294.78
2022-11-05T10:08:29.743Z,101282.41
2022-11-05T10:11:57.092Z,101276.91
2022-11-05T10:14:47.615Z,101265.34
2022-11-05T10:17:39.160Z,101262.22
2022-11-05T10:20:31.123Z,101267.81
2022-11-05T10:23:22.304Z,101253.78
2022-11-05T10:26:13.496Z,101272.44
2022-11-05T10:28:58.856Z,101270.69
2022-11-05T10:31:44.521Z,101275.91
2022-11-05T10:34:33.624Z,101278.41
2022-11-05T10:37:20.452Z,101272.19
2022-11-05T10:40:14.033Z,101261.63
2022-11-05T10:43:09.868Z,101247.41
2022-11-05T10:45:59.778Z,101263.00
2022-11-05T10:49:06.551Z,101256.66
2022-11-05T10:52:00.407Z,101255.66
2022-11-05T10:54:46.906Z,101252.72
2022-11-05T10:57:38.061Z,101242.84
2022-11-05T11:00:28.315Z,101234.53
2022-11-05T11:03:43.246Z,101233.09
2022-11-05T11:06:31.460Z,101227.31
2022-11-05T11:09:35.705Z,101209.03
2022-11-05T11:12:24.538Z,101218.28
2022-11-05T11:15:32.762Z,101224.72
2022-11-05T11:18:26.150Z,101213.69
2022-11-05T11:21:16.533Z,101216.44
2022-11-05T11:24:04.753Z,101205.63
2022-11-05T11:26:50.146Z,101192.63
2022-11-05T11:29:41.125Z,101209.09
2022-11-05T11:32:36.137Z,101198.63
2022-11-05T11:35:23.988Z,101182.50
2022-11-05T11:38:16.250Z,101177.66
2022-11-05T11:41:09.189Z,101178.09
2022-11-05T11:43:59.827Z,101167.28
2022-11-05T11:46:49.508Z,101164.88
2022-11-05T11:50:00.470Z,101171.31
2022-11-05T11:52:45.455Z,101163.94
2022-11-05T11:55:30.802Z,101170.44
2022-11-05T11:58:15.801Z,101173.63
2022-11-05T12:01:13.307Z,101165.94
2022-11-05T12:04:10.336Z,101163.66
2022-11-05T12:07:20.095Z,101159.72
2022-11-05T12:10:23.998Z,101164.69
2022-11-05T12:13:33.345Z,101168.78
2022-11-05T12:16:29.987Z,101149.28
2022-11-05T12:19:43.655Z,101141.34
2022-11-05T12:23:05.867Z,101132.50
2022-11-05T12:26:03.968Z,101138.72
2022-11-05T12:29:18.804Z,101136.94
2022-11-05T12:32:04.111Z,101116.53
2022-11-05T12:35:18.889Z,101132.50
2022-11-05T12:38:25.476Z,101126.22
2022-11-05T12:41:37.009Z,101126.44
2022-11-05T12:44:40.609Z,101128.00
2022-11-05T12:47:31.448Z,101111.31
2022-11-05T12:50:31.224Z,101092.63
2022-11-05T12:53:31.643Z,101077.72
2022-11-05T12:56:30.422Z,101093.50
2022-11-05T12:59:28.494Z,101095.16
2022-11-05T13:02:25.985Z,101079.00
2022-11-05T13:05:24.711Z,101093.22
2022-11-05T13:08:23.319Z,101082.59
2022-11-05T13:11:19.775Z,101077.25
2022-11-05T13:14:14.877Z,101049.00
2022-11-05T13:17:10.799Z,101062.25
2022-11-05T13:20:19.131Z,101049.84
2022-11-05T13:23:18.943Z,101038.13
2022-11-05T13:26:27.242Z,101043.78
2022-11-05T13:29:20.252Z,101040.63
2022-11-05T13:32:26.551Z,101034.44
2022-11-05T13:35:24.465Z,101024.34
2022-11-05T13:38:37.096Z,101022.59
2022-11-05T13:41:35.116Z,101002.00
2022-11-05T13:44:38.358Z,100997.41
2022-11-05T13:47:50.425Z,100983.63
2022-11-05T13:50:51.038Z,100955.19
2022-11-05T13:53:45.336Z,101002.00
2022-11-05T13:56:55.251Z,101015.75
2022-11-05T14:00:02.118Z,101016.47
2022-11-05T14:03:16.295Z,101023.41
2022-11-05T14:06:10.903Z,101021.09
2022-11-05T14:09:00.575Z,100995.50
2022-11-05T14:11:52.060Z,101011.44
2022-11-05T14:14:58.438Z,101007.22
2022-11-05T14:18:02.576Z,101016.69
2022-11-05T14:21:26.042Z,101015.09
2022-11-05T14:24:23.429Z,101001.06
2022-11-05T14:27:09.775Z,100983.53
2022-11-05T14:29:55.545Z,100993.91
2022-11-05T14:32:48.613Z,100977.97
2022-11-05T14:35:38.484Z,100993.81
2022-11-05T14:38:28.230Z,100977.88
2022-11-05T14:41:13.680Z,100975.97
2022-11-05T14:44:04.964Z,100962.66
2022-11-05T14:46:53.244Z,100980.59
2022-11-05T14:49:50.996Z,100981.84
2022-11-05T14:52:38.437Z,100994.56
2022-11-05T14:55:36.063Z,100983.13
2022-11-05T14:58:28.891Z,100940.94
2022-11-05T15:01:14.044Z,100960.88
2022-11-05T15:04:37.169Z,100947.00
2022-11-05T15:07:22.133Z,100937.38
2022-11-05T15:10:14.214Z,100935.59
2022-11-05T15:13:06.031Z,100964.22
2022-11-05T15:15:51.833Z,100948.50
2022-11-05T15:18:44.007Z,100942.41
2022-11-05T15:21:34.393Z,100951.19
2022-11-05T15:24:20.393Z,100934.63
2022-11-05T15:27:26.708Z,100944.16
2022-11-05T15:30:21.529Z,100945.75
2022-11-05T15:33:19.491Z,100930.00
2022-11-05T15:36:27.965Z,100937.56
2022-11-05T15:39:33.658Z,100913.41
2022-11-05T15:42:22.362Z,100942.59
2022-11-05T15:45:20.503Z,100912.38
2022-11-05T15:48:19.253Z,100947.84
2022-11-05T15:51:04.823Z,100943.41
2022-11-05T15:54:23.701Z,100943.53
2022-11-05T15:56:57.935Z,100917.75
2022-11-05T15:59:47.056Z,100918.34
2022-11-05T16:02:34.916Z,100914.69
2022-11-05T16:05:20.854Z,100926.84
2022-11-05T16:08:06.297Z,100922.63
2022-11-05T16:10:54.991Z,100932.81
2022-11-05T16:13:41.678Z,100921.38
2022-11-05T16:16:33.887Z,100926.63
2022-11-05T16:19:40.565Z,100931.88
2022-11-05T16:22:43.648Z,100930.41
2022-11-05T16:25:38.180Z,100921.50
2022-11-05T16:28:25.686Z,100927.47
2022-11-05T16:31:11.054Z,100924.00
2022-11-05T16:33:57.070Z,100921.19
2022-11-05T16:36:42.258Z,100920.75
2022-11-05T16:39:27.574Z,100929.06
2022-11-05T16:42:21.944Z,100893.47
2022-11-05T16:45:10.113Z,100923.91
2022-11-05T16:47:55.412Z,100922.84
2022-11-05T16:50:42.240Z,100917.59
2022-11-05T16:53:27.326Z,100919.25
2022-11-05T16:56:21.076Z,100905.84
2022-11-05T16:59:08.680Z,100881.38
2022-11-05T17:01:56.020Z,100913.59
2022-11-05T17:04:41.175Z,100909.06
2022-11-05T17:07:27.487Z,100912.41
2022-11-05T17:10:12.909Z,100900.34
2022-11-05T17:12:57.863Z,100901.41
2022-11-05T17:15:44.940Z,100886.84
2022-11-05T17:18:30.200Z,100901.91
2022-11-05T17:21:15.449Z,100893.44
2022-11-05T17:24:00.415Z,100897.50
2022-11-05T17:26:45.410Z,100894.88
2022-11-05T17:29:30.561Z,100894.25
2022-11-05T17:32:15.485Z,100905.91
2022-11-05T17:35:00.529Z,100900.63
2022-11-05T17:37:46.251Z,100903.16
2022-11-05T17:40:34.666Z,100907.47
2022-11-05T17:43:20.571Z,100897.91
2022-11-05T17:46:08.967Z,100905.56
2022-11-05T17:48:54.101Z,100913.34
2022-11-05T17:51:39.481Z,100893.81
2022-11-05T17:54:24.779Z,100904.38
2022-11-05T17:57:10.192Z,100883.22
2022-11-05T17:59:55.719Z,100904.38
2022-11-05T18:02:41.029Z,100896.50
2022-11-05T18:05:27.847Z,100904.19
2022-11-05T18:08:13.086Z,100906.63
2022-11-05T18:10:58.243Z,100898.09
2022-11-05T18:13:43.517Z,100907.56
2022-11-05T18:16:28.788Z,100896.13
2022-11-05T18:19:13.872Z,100908.28
2022-11-05T18:21:58.774Z,100916.19
2022-11-05T18:24:44.461Z,100893.38
2022-11-05T18:27:29.740Z,100886.66
2022-11-05T18:30:15.899Z,100902.81
2022-11-05T18:33:01.221Z,100882.44
2022-11-05T18:35:46.518Z,100895.78
2022-11-05T18:38:31.581Z,100896.63
2022-11-05T18:41:16.826Z,100892.22
2022-11-05T18:44:02.898Z,100891.25
2022-11-05T18:46:58.220Z,100871.53
2022-11-05T18:49:43.881Z,100886.00
2022-11-05T18:52:31.514Z,100884.00
2022-11-05T18:55:16.470Z,100878.84
2022-11-05T18:58:01.766Z,100883.88
2022-11-05T19:00:46.622Z,100854.50
2022-11-05T19:03:31.917Z,100883.03
2022-11-05T19:06:18.080Z,100875.78
2022-11-05T19:09:05.190Z,100873.97
2022-11-05T19:11:50.902Z,100846.31
2022-11-05T19:14:36.417Z,100857.94
2022-11-05T19:17:21.606Z,100853.41
2022-11-05T19:20:07.444Z,100866.59
2022-11-05T19:22:52.362Z,100862.22
2022-11-05T19:25:37.874Z,100848.91
2022-11-05T19:28:23.463Z,100864.47
2022-11-05T19:31:14.183Z,100841.25
2022-11-05T19:33:59.455Z,100854.84
2022-11-05T19:36:44.383Z,100848.72
2022-11-05T19:39:29.557Z,100849.06
2022-11-05T19:42:14.444Z,100852.81
2022-11-05T19:45:16.714Z,100848.72
2022-11-05T19:48:05.589Z,100837.00
2022-11-05T19:50:50.560Z,100854.59
2022-11-05T19:53:37.710Z,100841.06
2022-11-05T19:56:29.613Z,100846.59
2022-11-05T19:59:15.094Z,100847.41
2022-11-05T20:02:00.380Z,100852.56
2022-11-05T20:04:45.845Z,100841.31
2022-11-05T20:07:31.142Z,100809.03
2022-11-05T20:10:16.657Z,100834.91
2022-11-05T20:13:01.962Z,100839.09
2022-11-05T20:15:47.331Z,100842.44
2022-11-05T20:18:32.751Z,100839.94
2022-11-05T20:21:18.828Z,100830.97
2022-11-05T20:24:04.299Z,100821.78
2022-11-05T20:26:49.658Z,100828.47
2022-11-05T20:29:35.797Z,100828.81
2022-11-05T20:32:21.244Z,100817.13
2022-11-05T20:35:06.532Z,100831.34
2022-11-05T20:37:54.086Z,100834.72
2022-11-05T20:40:39.835Z,100832.91
2022-11-05T20:43:30.137Z,100813.41
2022-11-05T20:46:17.910Z,100816.31
2022-11-05T20:49:03.341Z,100819.75
2022-11-05T20:51:48.513Z,100821.56
2022-11-05T20:54:43.513Z,100797.06
2022-11-05T20:57:28.540Z,100806.53
2022-11-05T21:00:14.482Z,100803.91
2022-11-05T21:02:59.592Z,100799.38
2022-11-05T21:05:46.648Z,100792.88
2022-11-05T21:08:33.117Z,100800.19
2022-11-05T21:11:19.138Z,100802.69
2022-11-05T21:14:04.151Z,100809.63
2022-11-05T21:16:49.154Z,100812.13
2022-11-05T21:19:35.169Z,100806.06
2022-11-05T21:22:20.323Z,100810.38
2022-11-05T21:25:06.067Z,100806.78
2022-11-05T21:27:51.343Z,100811.06
2022-11-05T21:30:38.177Z,100811.69
2022-11-05T21:33:23.528Z,100804.63
2022-11-05T21:36:11.064Z,100797.69
2022-11-05T21:38:56.267Z,100808.94
2022-11-05T21:41:42.610Z,100791.00
2022-11-05T21:44:27.807Z,100794.84
2022-11-05T21:47:13.059Z,100794.13
2022-11-05T21:49:58.227Z,100794.84
2022-11-05T21:53:01.890Z,100780.75
2022-11-05T21:56:10.172Z,100765.69
2022-11-05T21:59:14.000Z,100790.19
2022-11-05T22:02:02.528Z,100768.06
2022-11-05T22:04:51.647Z,100789.22
2022-11-05T22:07:39.192Z,100780.25
2022-11-05T22:10:23.988Z,100789.94
2022-11-05T22:13:09.001Z,100783.63
2022-11-05T22:15:55.521Z,100784.34
2022-11-05T22:18:40.430Z,100754.94
2022-11-05T22:21:25.786Z,100770.94
2022-11-05T22:24:11.124Z,100773.34
2022-11-05T22:26:56.096Z,100783.25
2022-11-05T22:29:41.455Z,100773.56
2022-11-05T22:32:26.590Z,100774.31
2022-11-05T22:35:11.621Z,100767.34
2022-11-05T22:37:57.075Z,100763.78
2022-11-05T22:40:42.381Z,100746.56
2022-11-05T22:43:27.171Z,100738.09
2022-11-05T22:46:18.578Z,100747.75
2022-11-05T22:49:04.010Z,100742.25
2022-11-05T22:51:50.318Z,100731.75
2022-11-05T22:54:39.281Z,100732.56
2022-11-05T22:57:24.663Z,100729.00
2022-11-05T23:00:17.067Z,100726.38
2022-11-05T23:03:03.074Z,100714.75
2022-11-05T23:05:57.359Z,100725.41
2022-11-05T23:09:00.800Z,100730.66
2022-11-05T23:11:49.815Z,100725.41
2022-11-05T23:14:36.510Z,100735.09
2022-11-05T23:17:40.188Z,100717.03
2022-11-05T23:20:44.047Z,100726.25
2022-11-05T23:23:47.951Z,100730.56
2022-11-05T23:26:49.916Z,100708.31
2022-11-05T23:29:34.916Z,100719.06
2022-11-05T23:32:26.981Z,100709.28
2022-11-05T23:35:12.917Z,100716.56
2022-11-05T23:38:16.695Z,100713.81
2022-11-05T23:41:21.638Z,100713.81
2022-11-05T23:44:27.532Z,100706.66
2022-11-05T23:47:31.426Z,100704.13
2022-11-05T23:50:16.748Z,100706.66
2022-11-05T23:53:01.899Z,100701.38
2022-11-05T23:55:47.223Z,100701.38
2022-11-05T23:58:33.006Z,100702.31
